createdAt,value
2023-05-20T00:01:43.715Z,46.40
2023-05-20T00:04:11.638Z,45.20
2023-05-20T00:06:39.724Z,44.80
2023-05-20T00:09:07.953Z,45.40
2023-05-20T00:11:36.391Z,56.20
2023-05-20T00:14:04.334Z,55.70
2023-05-20T00:16:32.383Z,47.90
2023-05-20T00:19:00.497Z,45.50
2023-05-20T00:21:29.739Z,49.10
2023-05-20T00:23:58.530Z,48.10
2023-05-20T00:26:29.260Z,44.70
2023-05-20T00:28:56.991Z,45.20
2023-05-20T00:31:24.933Z,48.50
2023-05-20T00:33:53.350Z,47.40
2023-05-20T00:36:21.731Z,44.80
2023-05-20T00:38:49.675Z,47.10
2023-05-20T00:41:17.409Z,47.90
2023-05-20T00:43:45.463Z,52.20
2023-05-20T00:46:13.982Z,52.70
2023-05-20T00:48:43.977Z,50.10
2023-05-20T00:51:14.409Z,49.00
2023-05-20T00:53:43.665Z,48.70
2023-05-20T00:56:12.589Z,46.80
2023-05-20T00:58:40.777Z,53.90
2023-05-20T01:01:09.163Z,53.50
2023-05-20T01:03:38.254Z,48.80
2023-05-20T01:06:06.301Z,53.80
2023-05-20T01:08:35.774Z,54.60
2023-05-20T01:11:08.241Z,52.70
2023-05-20T01:13:45.788Z,54.00
2023-05-20T01:16:17.492Z,51.10
2023-05-20T01:18:48.762Z,54.20
2023-05-20T01:21:17.577Z,49.80
2023-05-20T01:23:45.998Z,54.50
2023-05-20T01:26:14.907Z,48.10
2023-05-20T01:28:46.221Z,49.10
2023-05-20T01:31:23.946Z,51.40
2023-05-20T01:33:58.378Z,68.50
2023-05-20T01:36:28.658Z,59.90
2023-05-20T01:38:58.525Z,59.50
2023-05-20T01:41:27.425Z,57.80
2023-05-20T01:43:56.185Z,53.00
2023-05-20T01:46:24.039Z,54.00
2023-05-20T01:49:03.020Z,53.90
2023-05-20T01:51:33.725Z,56.40
2023-05-20T01:54:02.118Z,53.00
2023-05-20T01:56:30.921Z,54.10
2023-05-20T01:58:58.886Z,66.50
2023-05-20T02:01:26.742Z,67.40
2023-05-20T02:03:54.639Z,57.70
2023-05-20T02:06:22.799Z,62.00
2023-05-20T02:08:51.064Z,53.30
2023-05-20T02:11:18.841Z,58.60
2023-05-20T02:13:46.620Z,61.50
2023-05-20T02:16:14.514Z,55.20
2023-05-20T02:18:42.739Z,55.00
2023-05-20T02:21:11.296Z,57.90
2023-05-20T02:23:39.709Z,52.50
2023-05-20T02:26:07.504Z,59.10
2023-05-20T02:28:35.221Z,58.90
2023-05-20T02:31:02.986Z,57.60
2023-05-20T02:33:30.986Z,60.90
2023-05-20T02:35:59.381Z,63.80
2023-05-20T02:38:27.643Z,78.30
2023-05-20T02:40:56.965Z,93.80
2023-05-20T02:43:24.922Z,70.20
2023-05-20T02:45:52.940Z,78.00
2023-05-20T02:48:20.933Z,66.30
2023-05-20T02:50:49.219Z,61.90
2023-05-20T02:53:17.583Z,60.90
2023-05-20T02:55:49.972Z,56.10
2023-05-20T02:58:17.731Z,55.10
2023-05-20T03:00:45.730Z,57.70
2023-05-20T03:03:16.701Z,56.80
2023-05-20T03:05:46.139Z,57.20
2023-05-20T03:08:15.102Z,52.70
2023-05-20T03:10:43.042Z,53.90
2023-05-20T03:13:11.722Z,54.90
2023-05-20T03:15:39.752Z,53.60
2023-05-20T03:18:08.854Z,54.60
2023-05-20T03:20:38.440Z,53.10
2023-05-20T03:23:06.810Z,57.30
2023-05-20T03:25:37.838Z,58.20
2023-05-20T03:28:06.836Z,53.20
2023-05-20T03:30:34.737Z,56.40
2023-05-20T03:33:03.364Z,56.90
2023-05-20T03:35:32.055Z,54.70
2023-05-20T03:38:01.878Z,53.10
2023-05-20T03:40:29.979Z,50.00
2023-05-20T03:42:57.719Z,53.00
2023-05-20T03:45:25.766Z,54.60
2023-05-20T03:47:54.094Z,52.70
2023-05-20T03:50:22.363Z,50.00
2023-05-20T03:52:50.174Z,49.00
2023-05-20T03:55:20.658Z,53.40
2023-05-20T03:57:48.599Z,48.90
2023-05-20T04:00:17.154Z,46.00
2023-05-20T04:02:45.902Z,44.50
2023-05-20T04:05:14.565Z,49.00
2023-05-20T04:07:42.398Z,44.20
2023-05-20T04:10:11.573Z,47.20
2023-05-20T04:12:39.548Z,44.70
2023-05-20T04:15:08.195Z,50.10
2023-05-20T04:17:38.502Z,42.90
2023-05-20T04:20:08.281Z,45.80
2023-05-20T04:22:36.297Z,39.70
2023-05-20T04:25:06.689Z,46.30
2023-05-20T04:27:34.443Z,43.10
2023-05-20T04:30:02.680Z,43.90
2023-05-20T04:32:31.498Z,42.70
2023-05-20T04:35:02.209Z,43.40
2023-05-20T04:37:32.150Z,40.70
2023-05-20T04:40:00.077Z,44.10
2023-05-20T04:42:27.977Z,41.30
2023-05-20T04:44:55.820Z,38.40
2023-05-20T04:47:24.281Z,39.30
2023-05-20T04:49:53.107Z,41.80
2023-05-20T04:52:20.822Z,39.00
2023-05-20T04:54:48.572Z,41.60
2023-05-20T04:57:17.425Z,35.20
2023-05-20T04:59:45.913Z,42.90
2023-05-20T05:02:14.977Z,36.60
2023-05-20T05:04:43.471Z,39.80
2023-05-20T05:07:11.307Z,40.80
2023-05-20T05:09:39.397Z,43.10
2023-05-20T05:12:07.916Z,43.00
2023-05-20T05:14:35.962Z,38.20
2023-05-20T05:17:04.342Z,38.00
2023-05-20T05:19:32.502Z,39.10
2023-05-20T05:22:00.248Z,39.40
2023-05-20T05:24:27.994Z,39.80
2023-05-20T05:26:56.493Z,38.90
2023-05-20T05:29:24.359Z,38.00
2023-05-20T05:31:52.243Z,36.60
2023-05-20T05:34:20.703Z,38.70
2023-05-20T05:36:48.433Z,38.20
2023-05-20T05:39:16.369Z,40.30
2023-05-20T05:41:44.809Z,36.10
2023-05-20T05:44:12.685Z,35.70
2023-05-20T05:46:40.531Z,38.40
2023-05-20T05:49:08.857Z,38.80
2023-05-20T05:51:38.882Z,40.60
2023-05-20T05:54:09.587Z,39.00
2023-05-20T05:56:38.093Z,43.40
2023-05-20T05:59:06.091Z,40.50
2023-05-20T06:01:34.326Z,39.80
2023-05-20T06:04:02.654Z,41.10
2023-05-20T06:06:31.542Z,41.30
2023-05-20T06:08:59.450Z,42.10
2023-05-20T06:11:27.801Z,41.90
2023-05-20T06:13:55.918Z,42.80
2023-05-20T06:16:24.299Z,40.80
2023-05-20T06:18:55.978Z,38.70
2023-05-20T06:21:24.331Z,40.70
2023-05-20T06:23:52.089Z,42.30
2023-05-20T06:26:20.355Z,47.60
2023-05-20T06:28:48.119Z,39.90
2023-05-20T06:31:16.108Z,40.00
2023-05-20T06:33:44.476Z,44.80
2023-05-20T06:36:12.541Z,40.10
2023-05-20T06:38:40.286Z,41.50
2023-05-20T06:41:08.819Z,38.50
2023-05-20T06:43:36.585Z,37.20
2023-05-20T06:46:05.064Z,36.40
2023-05-20T06:48:32.936Z,39.10
2023-05-20T06:51:00.845Z,39.60
2023-05-20T06:53:28.781Z,41.90
2023-05-20T06:55:57.215Z,39.10
2023-05-20T06:58:24.981Z,38.40
2023-05-20T07:00:53.264Z,36.30
2023-05-20T07:03:21.108Z,36.90
2023-05-20T07:05:48.898Z,35.00
2023-05-20T07:08:17.229Z,35.10
2023-05-20T07:10:46.652Z,35.00
2023-05-20T07:13:14.461Z,37.10
2023-05-20T07:15:42.828Z,39.60
2023-05-20T07:18:10.665Z,36.30
2023-05-20T07:20:38.646Z,35.20
2023-05-20T07:23:06.778Z,33.40
2023-05-20T07:25:34.763Z,32.90
2023-05-20T07:28:02.797Z,34.50
2023-05-20T07:30:31.033Z,35.80
2023-05-20T07:32:58.806Z,33.70
2023-05-20T07:35:27.147Z,35.20
2023-05-20T07:37:54.946Z,34.80
2023-05-20T07:40:22.741Z,32.10
2023-05-20T07:42:50.607Z,37.40
2023-05-20T07:45:19.004Z,32.10
2023-05-20T07:47:47.335Z,35.40
2023-05-20T07:50:15.604Z,36.80
2023-05-20T07:52:55.224Z,37.20
2023-05-20T07:55:24.671Z,32.80
2023-05-20T07:57:53.101Z,33.80
2023-05-20T08:00:21.117Z,34.00
2023-05-20T08:02:49.005Z,33.30
2023-05-20T08:05:17.112Z,32.80
2023-05-20T08:07:45.557Z,33.50
2023-05-20T08:10:13.795Z,34.50
2023-05-20T08:12:41.990Z,31.00
2023-05-20T08:15:10.224Z,31.20
2023-05-20T08:17:38.969Z,34.30
2023-05-20T08:20:08.318Z,33.70
2023-05-20T08:22:37.808Z,33.00
2023-05-20T08:25:09.306Z,32.20
2023-05-20T08:27:37.868Z,35.60
2023-05-20T08:30:08.257Z,38.20
2023-05-20T08:32:37.687Z,33.10
2023-05-20T08:35:09.472Z,33.70
2023-05-20T08:37:37.222Z,34.00
2023-05-20T08:40:06.716Z,34.00
2023-05-20T08:42:34.478Z,35.70
2023-05-20T08:45:03.137Z,35.10
2023-05-20T08:47:31.825Z,36.00
2023-05-20T08:50:00.079Z,36.20
2023-05-20T08:52:31.836Z,34.50
2023-05-20T08:55:00.159Z,35.20
2023-05-20T08:57:29.241Z,39.00
2023-05-20T08:59:57.804Z,41.40
2023-05-20T09:02:26.038Z,36.70
2023-05-20T09:04:54.349Z,35.50
2023-05-20T09:07:29.197Z,33.80
2023-05-20T09:09:58.596Z,32.00
2023-05-20T09:12:26.343Z,33.00
2023-05-20T09:14:54.258Z,32.50
2023-05-20T09:17:24.465Z,32.30
2023-05-20T09:19:56.382Z,31.30
2023-05-20T09:22:29.031Z,32.70
2023-05-20T09:24:56.853Z,32.00
2023-05-20T09:27:24.952Z,29.50
2023-05-20T09:29:53.221Z,30.10
2023-05-20T09:32:24.438Z,31.20
2023-05-20T09:34:52.387Z,30.80
2023-05-20T09:37:22.183Z,31.30
2023-05-20T09:39:59.870Z,30.20
2023-05-20T09:42:41.789Z,30.60
2023-05-20T09:45:10.107Z,33.50
2023-05-20T09:47:41.628Z,33.50
2023-05-20T09:50:10.088Z,30.10
2023-05-20T09:52:39.802Z,32.90
2023-05-20T09:55:12.776Z,29.60
2023-05-20T09:57:40.569Z,29.90
2023-05-20T10:00:08.851Z,31.30
2023-05-20T10:02:36.925Z,31.30
2023-05-20T10:05:11.287Z,29.00
2023-05-20T10:07:58.329Z,28.70
2023-05-20T10:10:51.206Z,31.10
2023-05-20T10:13:34.205Z,28.60
2023-05-20T10:16:24.577Z,30.00
2023-05-20T10:19:23.933Z,29.40
2023-05-20T10:22:06.150Z,29.20
2023-05-20T10:24:40.940Z,28.00
2023-05-20T10:27:12.882Z,31.90
2023-05-20T10:29:52.214Z,30.60
2023-05-20T10:32:26.756Z,28.60
2023-05-20T10:35:00.208Z,28.50
2023-05-20T10:37:30.664Z,30.10
2023-05-20T10:40:11.577Z,32.10
2023-05-20T10:42:40.150Z,31.60
2023-05-20T10:45:08.762Z,28.20
2023-05-20T10:47:42.091Z,30.50
2023-05-20T10:50:28.042Z,28.10
2023-05-20T10:53:04.394Z,28.90
2023-05-20T10:55:40.275Z,32.60
2023-05-20T10:58:10.072Z,33.00
2023-05-20T11:00:38.418Z,29.80
2023-05-20T11:03:07.554Z,31.70
2023-05-20T11:05:36.456Z,28.60
2023-05-20T11:08:16.929Z,29.70
2023-05-20T11:10:56.863Z,28.60
2023-05-20T11:13:26.810Z,29.10
2023-05-20T11:15:55.647Z,28.00
2023-05-20T11:18:23.516Z,26.60
2023-05-20T11:20:51.490Z,26.60
2023-05-20T11:23:19.700Z,25.60
2023-05-20T11:25:47.471Z,33.10
2023-05-20T11:28:16.620Z,24.10
2023-05-20T11:30:44.552Z,23.50
2023-05-20T11:33:13.970Z,27.20
2023-05-20T11:35:47.378Z,25.90
2023-05-20T11:40:50.948Z,28.00
2023-05-20T11:43:20.829Z,25.60
2023-05-20T11:45:55.412Z,24.80
2023-05-20T11:48:24.702Z,22.50
2023-05-20T11:50:54.936Z,21.40
2023-05-20T11:53:24.130Z,23.70
2023-05-20T11:56:02.391Z,25.60
2023-05-20T11:58:31.383Z,23.70
2023-05-20T12:01:09.664Z,23.90
2023-05-20T12:03:47.761Z,23.70
2023-05-20T12:06:17.885Z,25.90
2023-05-20T12:08:46.664Z,27.80
2023-05-20T12:11:14.454Z,24.90
2023-05-20T12:13:42.309Z,23.10
2023-05-20T12:16:10.697Z,23.80
2023-05-20T12:18:38.982Z,22.40
2023-05-20T12:21:07.313Z,22.30
2023-05-20T12:23:35.147Z,21.70
2023-05-20T12:26:03.293Z,21.40
2023-05-20T12:28:32.259Z,25.00
2023-05-20T12:31:01.044Z,26.20
2023-05-20T12:33:29.427Z,22.40
2023-05-20T12:35:57.461Z,35.00
2023-05-20T12:38:25.284Z,22.90
2023-05-20T12:40:53.016Z,22.10
2023-05-20T12:43:20.722Z,22.80
2023-05-20T12:45:48.878Z,20.30
2023-05-20T12:48:17.126Z,21.10
2023-05-20T12:50:44.963Z,22.00
2023-05-20T12:53:12.793Z,21.70
2023-05-20T12:55:40.962Z,21.40
2023-05-20T12:58:11.520Z,21.90
2023-05-20T13:00:39.731Z,22.30
2023-05-20T13:03:08.133Z,24.10
2023-05-20T13:05:36.112Z,21.70
2023-05-20T13:08:04.182Z,22.40
2023-05-20T13:10:31.994Z,22.50
2023-05-20T13:12:59.928Z,20.90
2023-05-20T13:15:28.397Z,22.30
2023-05-20T13:17:57.585Z,22.90
2023-05-20T13:20:25.952Z,23.40
2023-05-20T13:22:53.799Z,20.10
2023-05-20T13:25:21.746Z,21.10
2023-05-20T13:27:49.590Z,23.50
2023-05-20T13:30:17.861Z,21.60
2023-05-20T13:32:46.383Z,24.80
2023-05-20T13:55:16.292Z,20.20
2023-05-20T13:57:44.129Z,22.50
2023-05-20T14:00:12.640Z,20.30
2023-05-20T14:02:40.437Z,22.30
2023-05-20T14:05:08.411Z,21.50
2023-05-20T14:07:36.908Z,20.80
2023-05-20T14:10:06.912Z,22.40
2023-05-20T14:12:34.673Z,19.80
2023-05-20T14:15:02.407Z,21.20
2023-05-20T14:17:30.240Z,21.10
2023-05-20T14:19:57.935Z,22.60
2023-05-20T14:22:26.255Z,22.10
2023-05-20T14:24:54.475Z,22.00
2023-05-20T14:27:22.179Z,20.50
2023-05-20T14:29:49.894Z,23.00
2023-05-20T14:32:17.715Z,23.50
2023-05-20T14:34:45.878Z,20.70
2023-05-20T14:37:15.560Z,23.20
2023-05-20T14:39:43.762Z,22.20
2023-05-20T14:42:12.097Z,23.60
2023-05-20T14:44:39.822Z,22.10
2023-05-20T14:47:07.807Z,21.90
2023-05-20T14:49:39.203Z,23.20
2023-05-20T14:52:07.715Z,22.70
2023-05-20T14:54:35.681Z,20.20
2023-05-20T14:57:06.378Z,22.50
2023-05-20T14:59:34.261Z,20.90
2023-05-20T15:02:02.224Z,21.00
2023-05-20T15:04:30.627Z,23.40
2023-05-20T15:06:58.960Z,26.30
2023-05-20T15:09:26.937Z,21.10
2023-05-20T15:11:54.723Z,22.80
2023-05-20T15:14:22.453Z,28.50
2023-05-20T15:16:50.222Z,22.20
2023-05-20T15:19:18.441Z,25.40
2023-05-20T15:21:47.063Z,24.70
2023-05-20T15:24:17.412Z,22.60
2023-05-20T15:26:48.444Z,24.00
2023-05-20T16:08:08.648Z,22.10
2023-05-20T16:10:37.225Z,22.00
2023-05-20T16:13:05.108Z,19.00
2023-05-20T16:15:36.610Z,19.50
2023-05-20T16:18:05.147Z,17.10
2023-05-20T16:20:32.949Z,20.10
2023-05-20T16:23:01.705Z,20.00
2023-05-20T16:25:29.912Z,19.20
2023-05-20T16:27:58.453Z,19.20
2023-05-20T16:30:26.547Z,20.00
2023-05-20T16:32:54.373Z,21.60
2023-05-20T16:35:22.087Z,20.70
2023-05-20T16:37:50.452Z,22.60
2023-05-20T16:40:18.860Z,16.80
2023-05-20T16:42:46.565Z,20.80
2023-05-20T16:45:14.354Z,20.90
2023-05-20T16:47:42.235Z,19.80
2023-05-20T16:50:10.244Z,21.50
2023-05-20T16:52:38.798Z,22.00
2023-05-20T16:55:08.557Z,25.80
2023-05-20T16:57:36.388Z,24.60
2023-05-20T17:00:11.570Z,19.40
2023-05-20T17:02:40.000Z,20.30
2023-05-20T17:05:08.639Z,20.40
2023-05-20T17:07:36.428Z,18.80
2023-05-20T17:10:04.629Z,19.40
2023-05-20T17:12:32.477Z,17.70
2023-05-20T17:15:00.454Z,19.40
2023-05-20T17:17:28.621Z,20.00
2023-05-20T17:19:56.390Z,19.50
2023-05-20T17:22:24.212Z,19.00
2023-05-20T17:24:51.919Z,19.00
2023-05-20T17:27:19.641Z,18.60
2023-05-20T17:29:48.673Z,20.20
2023-05-20T17:32:16.869Z,22.40
2023-05-20T17:34:44.575Z,17.30
2023-05-20T17:37:12.289Z,18.30
2023-05-20T17:39:42.292Z,17.90
2023-05-20T17:42:10.877Z,20.10
2023-05-20T17:44:38.637Z,20.90
2023-05-20T17:47:06.922Z,20.20
2023-05-20T17:49:34.644Z,19.70
2023-05-20T17:52:02.473Z,19.00
2023-05-20T17:54:30.546Z,19.40
2023-05-20T17:56:58.597Z,19.40
2023-05-20T17:59:26.446Z,22.90
2023-05-20T18:01:54.735Z,21.80
2023-05-20T18:04:22.736Z,24.90
2023-05-20T18:06:50.610Z,23.40
2023-05-20T18:09:18.761Z,21.50
2023-05-20T18:11:46.527Z,23.40
2023-05-20T18:14:14.235Z,21.80
2023-05-20T18:16:42.429Z,22.70
2023-05-20T18:19:10.174Z,22.40
2023-05-20T18:21:38.192Z,24.30
2023-05-20T18:24:06.364Z,21.80
2023-05-20T18:26:34.099Z,20.70
2023-05-20T18:29:01.891Z,18.80
2023-05-20T18:31:30.989Z,21.50
2023-05-20T18:33:58.788Z,21.90
2023-05-20T18:36:27.588Z,21.80
2023-05-20T18:38:55.510Z,22.10
2023-05-20T18:41:27.063Z,21.20
2023-05-20T18:44:00.071Z,22.90
2023-05-20T18:46:28.272Z,23.20
2023-05-20T18:48:56.273Z,23.90
2023-05-20T18:51:25.917Z,19.60
2023-05-20T18:53:53.598Z,23.70
2023-05-20T18:56:21.629Z,23.10
2023-05-20T18:58:49.350Z,28.60
2023-05-20T19:01:17.565Z,25.20
2023-05-20T19:03:45.711Z,24.80
2023-05-20T19:06:14.138Z,24.20
2023-05-20T19:08:42.807Z,24.80
2023-05-20T19:11:10.501Z,25.00
2023-05-20T19:13:38.628Z,23.70
2023-05-20T19:16:07.406Z,26.40
2023-05-20T19:18:35.178Z,26.30
2023-05-20T19:21:03.003Z,25.80
2023-05-20T19:23:30.698Z,27.00
2023-05-20T19:25:58.409Z,25.50
2023-05-20T19:28:26.746Z,24.10
2023-05-20T19:30:54.979Z,23.20
2023-05-20T19:33:22.725Z,24.60
2023-05-20T19:35:50.606Z,25.40
2023-05-20T19:38:18.469Z,26.80
2023-05-20T19:40:47.862Z,27.40
2023-05-20T19:43:16.238Z,27.00
2023-05-20T19:45:44.381Z,26.40
2023-05-20T19:48:12.158Z,28.60
2023-05-20T19:50:40.496Z,29.30
2023-05-20T19:53:08.211Z,28.50
2023-05-20T19:55:36.718Z,29.30
2023-05-20T19:58:04.811Z,28.70
2023-05-20T20:00:32.951Z,27.20
2023-05-20T20:03:03.333Z,29.00
2023-05-20T20:05:31.257Z,28.00
2023-05-20T20:07:59.127Z,31.20
2023-05-20T20:10:30.815Z,30.30
2023-05-20T20:12:58.967Z,28.20
2023-05-20T20:15:28.161Z,28.70
2023-05-20T20:17:55.975Z,26.00
2023-05-20T20:20:24.957Z,29.50
2023-05-20T20:22:52.728Z,28.90
2023-05-20T20:25:20.744Z,32.30
2023-05-20T20:27:50.558Z,30.50
2023-05-20T20:30:21.514Z,30.10
2023-05-20T20:32:49.307Z,26.80
2023-05-20T20:35:17.235Z,29.20
2023-05-20T20:37:45.260Z,29.70
2023-05-20T20:40:16.474Z,30.70
2023-05-20T20:42:45.401Z,29.20
2023-05-20T20:45:15.205Z,27.80
2023-05-20T20:47:44.126Z,30.60
2023-05-20T20:50:11.899Z,28.40
2023-05-20T20:52:39.977Z,31.10
2023-05-20T20:55:08.010Z,28.00
2023-05-20T20:57:37.009Z,31.80
2023-05-20T21:00:23.467Z,28.70
2023-05-20T21:02:52.026Z,29.90
2023-05-20T21:05:21.472Z,29.10
2023-05-20T21:07:52.746Z,30.10
2023-05-20T21:10:21.291Z,28.50
2023-05-20T21:12:49.471Z,26.20
2023-05-20T21:15:17.366Z,26.40
2023-05-20T21:17:45.963Z,28.10
2023-05-20T21:20:15.272Z,29.10
2023-05-20T21:22:43.708Z,27.10
2023-05-20T21:25:13.162Z,27.90
2023-05-20T21:27:41.651Z,29.10
2023-05-20T21:30:11.606Z,30.80
2023-05-20T21:32:45.550Z,29.60
2023-05-20T21:35:13.907Z,28.90
2023-05-20T21:37:42.071Z,27.70
2023-05-20T21:40:10.119Z,28.90
2023-05-20T21:42:37.993Z,26.00
2023-05-20T21:45:06.638Z,26.80
2023-05-20T21:47:34.371Z,26.60
2023-05-20T21:50:03.631Z,31.80
2023-05-20T21:52:31.859Z,28.60
2023-05-20T21:54:59.569Z,31.20
2023-05-20T21:57:27.471Z,27.50
2023-05-20T21:59:55.280Z,26.60
2023-05-20T22:02:23.664Z,30.60
2023-05-20T22:04:51.948Z,27.20
2023-05-20T22:07:19.622Z,28.30
2023-05-20T22:09:47.326Z,30.00
2023-05-20T22:12:15.665Z,27.90
2023-05-20T22:14:43.402Z,28.40
2023-05-20T22:17:11.704Z,30.60
2023-05-20T22:19:40.262Z,26.90
2023-05-20T22:22:07.977Z,26.90
2023-05-20T22:24:35.891Z,29.40
2023-05-20T22:27:04.033Z,27.40
2023-05-20T22:29:32.575Z,26.00
2023-05-20T22:32:00.985Z,28.00
2023-05-20T22:34:29.029Z,24.90
2023-05-20T22:36:58.229Z,26.40
2023-05-20T22:39:25.947Z,33.80
2023-05-20T22:41:53.667Z,25.80
2023-05-20T22:44:21.504Z,24.70
2023-05-20T22:46:49.681Z,22.80
2023-05-20T22:49:18.735Z,23.30
2023-05-20T22:51:46.419Z,24.60
2023-05-20T22:54:14.094Z,24.50
2023-05-20T22:56:42.139Z,21.40
2023-05-20T22:59:09.933Z,20.60
2023-05-20T23:01:38.220Z,22.80
2023-05-20T23:04:06.085Z,22.70
2023-05-20T23:06:33.788Z,23.40
2023-05-20T23:09:01.760Z,20.80
2023-05-20T23:11:29.460Z,19.50
2023-05-20T23:13:57.748Z,24.20
2023-05-20T23:16:26.480Z,20.50
2023-05-20T23:18:54.179Z,21.70
2023-05-20T23:21:22.193Z,26.50
2023-05-20T23:23:49.944Z,19.60
2023-05-20T23:26:18.189Z,21.20
2023-05-20T23:28:46.250Z,20.20
2023-05-20T23:31:14.878Z,22.70
2023-05-20T23:33:42.598Z,23.60
2023-05-20T23:36:10.346Z,21.10
2023-05-20T23:38:38.662Z,22.80
2023-05-20T23:41:07.019Z,19.90
2023-05-20T23:43:34.697Z,20.10
2023-05-20T23:46:02.669Z,22.50
2023-05-20T23:48:30.333Z,20.90
2023-05-20T23:50:58.231Z,20.60
2023-05-20T23:53:25.974Z,21.30
2023-05-20T23:55:54.122Z,23.30
2023-05-20T23:58:22.272Z,23.90
